sensor_id;sensor_type;location;lat;lon;timestamp;temperature;humidity
59923;DHT22;45778;51.142;3.732;2022-08-19T00:00:17;18.00;99.90
59923;DHT22;45778;51.142;3.732;2022-08-19T00:02:43;18.00;99.90
59923;DHT22;45778;51.142;3.732;2022-08-19T00:05:10;17.90;99.90
59923;DHT22;45778;51.142;3.732;2022-08-19T00:07:36;17.80;99.90
59923;DHT22;45778;51.142;3.732;2022-08-19T00:10:04;17.70;99.90
59923;DHT22;45778;51.142;3.732;2022-08-19T00:12:30;17.60;99.90
59923;DHT22;45778;51.142;3.732;2022-08-19T00:14:56;17.60;99.90
59923;DHT22;45778;51.142;3.732;2022-08-19T00:17:22;17.70;99.90
59923;DHT22;45778;51.142;3.732;2022-08-19T00:19:48;17.70;99.90
59923;DHT22;45778;51.142;3.732;2022-08-19T00:22:13;17.70;99.90
59923;DHT22;45778;51.142;3.732;2022-08-19T00:24:39;17.80;99.90
59923;DHT22;45778;51.142;3.732;2022-08-19T00:27:06;17.70;99.90
59923;DHT22;45778;51.142;3.732;2022-08-19T00:29:32;17.60;99.90
59923;DHT22;45778;51.142;3.732;2022-08-19T00:31:58;17.50;99.90
59923;DHT22;45778;51.142;3.732;2022-08-19T00:34:25;17.50;99.90
59923;DHT22;45778;51.142;3.732;2022-08-19T00:36:54;17.50;99.90
59923;DHT22;45778;51.142;3.732;2022-08-19T00:39:21;17.40;99.90
59923;DHT22;45778;51.142;3.732;2022-08-19T00:41:47;17.40;99.90
59923;DHT22;45778;51.142;3.732;2022-08-19T00:44:23;17.50;99.90
59923;DHT22;45778;51.142;3.732;2022-08-19T00:46:51;17.40;99.90
59923;DHT22;45778;51.142;3.732;2022-08-19T00:51:48;17.30;99.90
59923;DHT22;45778;51.142;3.732;2022-08-19T00:54:15;17.30;99.90
59923;DHT22;45778;51.142;3.732;2022-08-19T00:56:42;17.30;99.90
59923;DHT22;45778;51.142;3.732;2022-08-19T00:59:08;17.20;99.90
59923;DHT22;45778;51.142;3.732;2022-08-19T01:01:37;17.20;99.90
59923;DHT22;45778;51.142;3.732;2022-08-19T01:04:03;17.20;99.90
59923;DHT22;45778;51.142;3.732;2022-08-19T01:06:30;17.10;99.90
59923;DHT22;45778;51.142;3.732;2022-08-19T01:08:58;17.10;99.90
59923;DHT22;45778;51.142;3.732;2022-08-19T01:11:26;17.10;99.90
59923;DHT22;45778;51.142;3.732;2022-08-19T01:13:53;17.10;99.90
59923;DHT22;45778;51.142;3.732;2022-08-19T01:16:22;17.20;99.90
59923;DHT22;45778;51.142;3.732;2022-08-19T01:18:49;17.20;99.90
59923;DHT22;45778;51.142;3.732;2022-08-19T01:21:30;17.30;99.90
59923;DHT22;45778;51.142;3.732;2022-08-19T01:23:56;17.20;99.90
59923;DHT22;45778;51.142;3.732;2022-08-19T01:26:23;17.10;99.90
59923;DHT22;45778;51.142;3.732;2022-08-19T01:28:53;17.00;99.90
59923;DHT22;45778;51.142;3.732;2022-08-19T01:31:22;16.90;99.90
59923;DHT22;45778;51.142;3.732;2022-08-19T01:33:51;16.90;99.90
59923;DHT22;45778;51.142;3.732;2022-08-19T01:36:42;16.80;99.90
59923;DHT22;45778;51.142;3.732;2022-08-19T01:39:14;16.80;99.90
59923;DHT22;45778;51.142;3.732;2022-08-19T01:41:39;16.80;99.90
59923;DHT22;45778;51.142;3.732;2022-08-19T01:44:07;16.70;99.90
59923;DHT22;45778;51.142;3.732;2022-08-19T01:46:34;16.70;99.90
59923;DHT22;45778;51.142;3.732;2022-08-19T01:49:01;16.70;99.90
59923;DHT22;45778;51.142;3.732;2022-08-19T01:51:27;16.70;99.90
59923;DHT22;45778;51.142;3.732;2022-08-19T01:53:53;16.80;99.90
59923;DHT22;45778;51.142;3.732;2022-08-19T01:56:20;16.60;99.90
59923;DHT22;45778;51.142;3.732;2022-08-19T01:58:49;16.60;99.90
59923;DHT22;45778;51.142;3.732;2022-08-19T02:01:17;16.60;99.90
59923;DHT22;45778;51.142;3.732;2022-08-19T02:03:42;16.60;99.90
59923;DHT22;45778;51.142;3.732;2022-08-19T02:06:08;16.60;99.90
59923;DHT22;45778;51.142;3.732;2022-08-19T02:08:37;16.60;99.90
59923;DHT22;45778;51.142;3.732;2022-08-19T02:11:03;16.60;99.90
59923;DHT22;45778;51.142;3.732;2022-08-19T02:13:31;16.60;99.90
59923;DHT22;45778;51.142;3.732;2022-08-19T02:15:56;16.60;99.90
59923;DHT22;45778;51.142;3.732;2022-08-19T02:18:23;16.60;99.90
59923;DHT22;45778;51.142;3.732;2022-08-19T02:20:48;16.50;99.90
59923;DHT22;45778;51.142;3.732;2022-08-19T02:23:15;16.50;99.90
59923;DHT22;45778;51.142;3.732;2022-08-19T02:25:44;16.60;99.90
59923;DHT22;45778;51.142;3.732;2022-08-19T02:28:10;16.50;99.90
59923;DHT22;45778;51.142;3.732;2022-08-19T02:30:37;16.40;99.90
59923;DHT22;45778;51.142;3.732;2022-08-19T02:33:04;16.50;99.90
59923;DHT22;45778;51.142;3.732;2022-08-19T02:35:30;16.40;99.90
59923;DHT22;45778;51.142;3.732;2022-08-19T02:37:56;16.40;99.90
59923;DHT22;45778;51.142;3.732;2022-08-19T02:40:40;16.50;99.90
59923;DHT22;45778;51.142;3.732;2022-08-19T02:43:07;16.40;99.90
59923;DHT22;45778;51.142;3.732;2022-08-19T02:45:38;16.40;99.90
59923;DHT22;45778;51.142;3.732;2022-08-19T02:48:05;16.50;99.90
59923;DHT22;45778;51.142;3.732;2022-08-19T02:50:31;16.40;99.90
59923;DHT22;45778;51.142;3.732;2022-08-19T02:52:57;16.50;99.90
59923;DHT22;45778;51.142;3.732;2022-08-19T02:55:23;16.40;99.90
59923;DHT22;45778;51.142;3.732;2022-08-19T02:57:48;16.50;99.90
59923;DHT22;45778;51.142;3.732;2022-08-19T03:00:15;16.50;99.90
59923;DHT22;45778;51.142;3.732;2022-08-19T03:02:41;16.50;99.90
59923;DHT22;45778;51.142;3.732;2022-08-19T03:05:09;16.50;99.90
59923;DHT22;45778;51.142;3.732;2022-08-19T03:07:35;16.60;99.90
59923;DHT22;45778;51.142;3.732;2022-08-19T03:10:01;16.60;99.90
59923;DHT22;45778;51.142;3.732;2022-08-19T03:12:27;16.60;99.90
59923;DHT22;45778;51.142;3.732;2022-08-19T03:14:53;16.60;99.90
59923;DHT22;45778;51.142;3.732;2022-08-19T03:17:19;16.60;99.90
59923;DHT22;45778;51.142;3.732;2022-08-19T03:19:44;16.60;99.90
59923;DHT22;45778;51.142;3.732;2022-08-19T03:22:10;16.60;99.90
59923;DHT22;45778;51.142;3.732;2022-08-19T03:24:37;16.60;99.90
59923;DHT22;45778;51.142;3.732;2022-08-19T03:27:03;16.60;99.90
59923;DHT22;45778;51.142;3.732;2022-08-19T03:29:31;16.60;99.90
59923;DHT22;45778;51.142;3.732;2022-08-19T03:32:02;16.70;99.90
59923;DHT22;45778;51.142;3.732;2022-08-19T03:34:31;16.60;99.90
59923;DHT22;45778;51.142;3.732;2022-08-19T03:36:59;16.60;99.90
59923;DHT22;45778;51.142;3.732;2022-08-19T03:39:28;16.60;99.90
59923;DHT22;45778;51.142;3.732;2022-08-19T03:41:54;16.60;99.90
59923;DHT22;45778;51.142;3.732;2022-08-19T03:44:25;16.60;99.90
59923;DHT22;45778;51.142;3.732;2022-08-19T03:46:56;16.60;99.90
59923;DHT22;45778;51.142;3.732;2022-08-19T03:49:25;16.60;99.90
59923;DHT22;45778;51.142;3.732;2022-08-19T03:51:52;16.70;99.90
59923;DHT22;45778;51.142;3.732;2022-08-19T03:54:20;16.50;99.90
59923;DHT22;45778;51.142;3.732;2022-08-19T03:56:49;16.50;99.90
59923;DHT22;45778;51.142;3.732;2022-08-19T03:59:26;16.40;99.90
59923;DHT22;45778;51.142;3.732;2022-08-19T04:01:57;16.60;99.90
59923;DHT22;45778;51.142;3.732;2022-08-19T04:04:23;16.50;99.90
59923;DHT22;45778;51.142;3.732;2022-08-19T04:06:50;16.50;99.90
59923;DHT22;45778;51.142;3.732;2022-08-19T04:09:17;16.40;99.90
59923;DHT22;45778;51.142;3.732;2022-08-19T04:11:47;16.30;99.90
59923;DHT22;45778;51.142;3.732;2022-08-19T04:14:17;16.30;99.90
59923;DHT22;45778;51.142;3.732;2022-08-19T04:16:44;16.40;99.90
59923;DHT22;45778;51.142;3.732;2022-08-19T04:19:11;16.30;99.90
59923;DHT22;45778;51.142;3.732;2022-08-19T04:21:37;16.30;99.90
59923;DHT22;45778;51.142;3.732;2022-08-19T04:24:04;16.40;99.90
59923;DHT22;45778;51.142;3.732;2022-08-19T04:26:32;16.30;99.90
59923;DHT22;45778;51.142;3.732;2022-08-19T04:29:00;16.30;99.90
59923;DHT22;45778;51.142;3.732;2022-08-19T04:31:29;16.30;99.90
59923;DHT22;45778;51.142;3.732;2022-08-19T04:34:00;16.30;99.90
59923;DHT22;45778;51.142;3.732;2022-08-19T04:36:31;16.30;99.90
59923;DHT22;45778;51.142;3.732;2022-08-19T04:38:59;16.40;99.90
59923;DHT22;45778;51.142;3.732;2022-08-19T04:41:25;16.30;99.90
59923;DHT22;45778;51.142;3.732;2022-08-19T04:44:11;16.30;99.90
59923;DHT22;45778;51.142;3.732;2022-08-19T04:46:37;16.20;99.90
59923;DHT22;45778;51.142;3.732;2022-08-19T04:49:04;16.30;99.90
59923;DHT22;45778;51.142;3.732;2022-08-19T04:51:31;16.20;99.90
59923;DHT22;45778;51.142;3.732;2022-08-19T04:53:57;16.40;99.90
59923;DHT22;45778;51.142;3.732;2022-08-19T04:56:24;16.30;99.90
59923;DHT22;45778;51.142;3.732;2022-08-19T04:58:53;16.40;99.90
59923;DHT22;45778;51.142;3.732;2022-08-19T05:01:27;16.40;99.90
59923;DHT22;45778;51.142;3.732;2022-08-19T05:03:57;16.50;99.90
59923;DHT22;45778;51.142;3.732;2022-08-19T05:06:23;16.40;99.90
59923;DHT22;45778;51.142;3.732;2022-08-19T05:08:49;16.40;99.90
59923;DHT22;45778;51.142;3.732;2022-08-19T05:13:42;16.50;99.90
59923;DHT22;45778;51.142;3.732;2022-08-19T05:16:10;16.50;99.90
59923;DHT22;45778;51.142;3.732;2022-08-19T05:18:36;16.60;99.90
59923;DHT22;45778;51.142;3.732;2022-08-19T05:21:21;16.70;99.90
59923;DHT22;45778;51.142;3.732;2022-08-19T05:24:06;16.90;99.90
59923;DHT22;45778;51.142;3.732;2022-08-19T05:26:36;16.70;99.90
59923;DHT22;45778;51.142;3.732;2022-08-19T05:29:02;16.80;99.90
59923;DHT22;45778;51.142;3.732;2022-08-19T05:31:28;16.90;99.90
59923;DHT22;45778;51.142;3.732;2022-08-19T05:33:54;17.00;99.90
59923;DHT22;45778;51.142;3.732;2022-08-19T05:36:21;17.10;99.90
59923;DHT22;45778;51.142;3.732;2022-08-19T05:38:47;17.20;99.90
59923;DHT22;45778;51.142;3.732;2022-08-19T05:41:14;17.20;99.90
59923;DHT22;45778;51.142;3.732;2022-08-19T05:43:40;17.20;99.90
59923;DHT22;45778;51.142;3.732;2022-08-19T05:46:07;17.30;99.90
59923;DHT22;45778;51.142;3.732;2022-08-19T05:48:34;17.30;99.90
59923;DHT22;45778;51.142;3.732;2022-08-19T05:51:06;17.30;99.90
59923;DHT22;45778;51.142;3.732;2022-08-19T05:53:34;17.40;99.90
59923;DHT22;45778;51.142;3.732;2022-08-19T05:56:04;17.50;99.90
59923;DHT22;45778;51.142;3.732;2022-08-19T05:58:30;17.70;99.90
59923;DHT22;45778;51.142;3.732;2022-08-19T06:00:57;17.70;99.90
59923;DHT22;45778;51.142;3.732;2022-08-19T06:03:23;17.80;99.90
59923;DHT22;45778;51.142;3.732;2022-08-19T06:05:49;18.00;99.90
59923;DHT22;45778;51.142;3.732;2022-08-19T06:08:15;18.00;99.90
59923;DHT22;45778;51.142;3.732;2022-08-19T06:10:43;18.10;99.90
59923;DHT22;45778;51.142;3.732;2022-08-19T06:13:09;18.30;99.90
59923;DHT22;45778;51.142;3.732;2022-08-19T06:15:34;18.20;99.90
59923;DHT22;45778;51.142;3.732;2022-08-19T06:18:00;18.10;99.90
59923;DHT22;45778;51.142;3.732;2022-08-19T06:20:26;18.20;99.90
59923;DHT22;45778;51.142;3.732;2022-08-19T06:22:52;18.20;99.90
59923;DHT22;45778;51.142;3.732;2022-08-19T06:25:18;18.30;99.90
59923;DHT22;45778;51.142;3.732;2022-08-19T06:27:44;18.30;99.90
59923;DHT22;45778;51.142;3.732;2022-08-19T06:30:10;18.50;99.90
59923;DHT22;45778;51.142;3.732;2022-08-19T06:32:37;18.70;99.90
59923;DHT22;45778;51.142;3.732;2022-08-19T06:35:04;18.70;99.90
59923;DHT22;45778;51.142;3.732;2022-08-19T06:37:30;18.70;99.90
59923;DHT22;45778;51.142;3.732;2022-08-19T06:39:56;18.70;99.90
59923;DHT22;45778;51.142;3.732;2022-08-19T06:42:21;18.60;99.90
59923;DHT22;45778;51.142;3.732;2022-08-19T06:44:48;18.70;99.90
59923;DHT22;45778;51.142;3.732;2022-08-19T06:47:16;18.80;99.90
59923;DHT22;45778;51.142;3.732;2022-08-19T06:49:42;18.90;99.90
59923;DHT22;45778;51.142;3.732;2022-08-19T06:52:08;19.10;99.90
59923;DHT22;45778;51.142;3.732;2022-08-19T06:54:34;19.10;99.90
59923;DHT22;45778;51.142;3.732;2022-08-19T06:57:02;19.10;99.90
59923;DHT22;45778;51.142;3.732;2022-08-19T06:59:28;19.10;99.90
59923;DHT22;45778;51.142;3.732;2022-08-19T07:02:00;19.10;99.90
59923;DHT22;45778;51.142;3.732;2022-08-19T07:04:30;19.20;99.90
59923;DHT22;45778;51.142;3.732;2022-08-19T07:07:06;19.20;99.90
59923;DHT22;45778;51.142;3.732;2022-08-19T07:09:34;19.20;99.90
59923;DHT22;45778;51.142;3.732;2022-08-19T07:11:59;19.40;99.90
59923;DHT22;45778;51.142;3.732;2022-08-19T07:14:27;19.30;99.90
59923;DHT22;45778;51.142;3.732;2022-08-19T07:16:55;19.30;99.90
59923;DHT22;45778;51.142;3.732;2022-08-19T07:19:23;19.30;99.90
59923;DHT22;45778;51.142;3.732;2022-08-19T07:21:50;19.30;99.90
59923;DHT22;45778;51.142;3.732;2022-08-19T07:24:19;19.50;99.90
59923;DHT22;45778;51.142;3.732;2022-08-19T07:26:45;19.60;99.90
59923;DHT22;45778;51.142;3.732;2022-08-19T07:29:12;19.60;99.90
59923;DHT22;45778;51.142;3.732;2022-08-19T07:31:39;19.60;99.90
59923;DHT22;45778;51.142;3.732;2022-08-19T07:34:07;19.70;99.90
59923;DHT22;45778;51.142;3.732;2022-08-19T07:36:37;19.70;99.90
59923;DHT22;45778;51.142;3.732;2022-08-19T07:39:15;19.70;99.90
59923;DHT22;45778;51.142;3.732;2022-08-19T07:41:42;19.70;99.90
59923;DHT22;45778;51.142;3.732;2022-08-19T07:44:09;19.70;99.90
59923;DHT22;45778;51.142;3.732;2022-08-19T07:46:37;19.70;99.90
59923;DHT22;45778;51.142;3.732;2022-08-19T07:49:05;19.80;99.90
59923;DHT22;45778;51.142;3.732;2022-08-19T07:51:31;19.80;99.90
59923;DHT22;45778;51.142;3.732;2022-08-19T07:53:57;19.90;99.90
59923;DHT22;45778;51.142;3.732;2022-08-19T07:56:23;19.90;99.90
59923;DHT22;45778;51.142;3.732;2022-08-19T07:58:50;19.90;99.90
59923;DHT22;45778;51.142;3.732;2022-08-19T08:01:22;19.90;99.90
59923;DHT22;45778;51.142;3.732;2022-08-19T08:03:49;19.70;99.90
59923;DHT22;45778;51.142;3.732;2022-08-19T08:06:34;19.70;99.90
59923;DHT22;45778;51.142;3.732;2022-08-19T08:09:22;19.70;99.90
59923;DHT22;45778;51.142;3.732;2022-08-19T08:11:54;19.80;99.90
59923;DHT22;45778;51.142;3.732;2022-08-19T08:14:27;20.10;99.90
59923;DHT22;45778;51.142;3.732;2022-08-19T08:16:53;20.10;99.90
59923;DHT22;45778;51.142;3.732;2022-08-19T08:19:21;20.10;99.90
59923;DHT22;45778;51.142;3.732;2022-08-19T08:21:48;20.20;99.90
59923;DHT22;45778;51.142;3.732;2022-08-19T08:24:15;20.30;99.90
59923;DHT22;45778;51.142;3.732;2022-08-19T08:26:41;20.40;99.90
59923;DHT22;45778;51.142;3.732;2022-08-19T08:29:12;20.40;99.90
59923;DHT22;45778;51.142;3.732;2022-08-19T08:31:43;20.60;99.90
59923;DHT22;45778;51.142;3.732;2022-08-19T08:34:10;20.60;99.90
59923;DHT22;45778;51.142;3.732;2022-08-19T08:36:42;20.70;99.90
59923;DHT22;45778;51.142;3.732;2022-08-19T08:39:12;20.70;99.90
59923;DHT22;45778;51.142;3.732;2022-08-19T08:44:05;20.90;99.90
59923;DHT22;45778;51.142;3.732;2022-08-19T08:46:36;20.80;99.90
59923;DHT22;45778;51.142;3.732;2022-08-19T08:49:26;20.70;99.90
59923;DHT22;45778;51.142;3.732;2022-08-19T08:52:24;20.80;99.90
59923;DHT22;45778;51.142;3.732;2022-08-19T08:54:53;20.80;99.90
59923;DHT22;45778;51.142;3.732;2022-08-19T09:00:27;21.10;99.90
59923;DHT22;45778;51.142;3.732;2022-08-19T09:02:56;21.20;99.90
59923;DHT22;45778;51.142;3.732;2022-08-19T09:05:25;21.20;99.90
59923;DHT22;45778;51.142;3.732;2022-08-19T09:07:56;21.30;99.90
59923;DHT22;45778;51.142;3.732;2022-08-19T09:10:38;21.50;99.90
59923;DHT22;45778;51.142;3.732;2022-08-19T09:15:58;21.50;99.90
59923;DHT22;45778;51.142;3.732;2022-08-19T09:18:48;21.40;99.90
59923;DHT22;45778;51.142;3.732;2022-08-19T09:21:17;21.40;99.90
59923;DHT22;45778;51.142;3.732;2022-08-19T09:23:43;21.60;99.90
59923;DHT22;45778;51.142;3.732;2022-08-19T09:26:11;21.80;99.90
59923;DHT22;45778;51.142;3.732;2022-08-19T09:28:39;21.90;99.90
59923;DHT22;45778;51.142;3.732;2022-08-19T09:31:09;22.10;99.90
59923;DHT22;45778;51.142;3.732;2022-08-19T09:33:35;22.50;99.90
59923;DHT22;45778;51.142;3.732;2022-08-19T09:36:03;22.60;99.90
59923;DHT22;45778;51.142;3.732;2022-08-19T09:38:28;22.80;99.90
59923;DHT22;45778;51.142;3.732;2022-08-19T09:40:54;23.00;99.90
59923;DHT22;45778;51.142;3.732;2022-08-19T09:43:20;23.20;99.90
59923;DHT22;45778;51.142;3.732;2022-08-19T09:45:45;23.20;99.90
59923;DHT22;45778;51.142;3.732;2022-08-19T09:48:11;22.80;99.90
59923;DHT22;45778;51.142;3.732;2022-08-19T09:50:36;22.70;99.90
59923;DHT22;45778;51.142;3.732;2022-08-19T09:53:03;22.80;99.90
59923;DHT22;45778;51.142;3.732;2022-08-19T09:55:31;22.70;99.90
59923;DHT22;45778;51.142;3.732;2022-08-19T09:57:57;22.50;99.90
59923;DHT22;45778;51.142;3.732;2022-08-19T10:00:22;22.50;99.90
59923;DHT22;45778;51.142;3.732;2022-08-19T10:02:48;22.40;99.90
59923;DHT22;45778;51.142;3.732;2022-08-19T10:05:14;22.40;99.90
59923;DHT22;45778;51.142;3.732;2022-08-19T10:07:58;22.30;99.90
59923;DHT22;45778;51.142;3.732;2022-08-19T10:10:26;22.40;99.90
59923;DHT22;45778;51.142;3.732;2022-08-19T10:12:52;22.30;99.90
59923;DHT22;45778;51.142;3.732;2022-08-19T10:15:17;22.20;99.90
59923;DHT22;45778;51.142;3.732;2022-08-19T10:17:46;22.30;99.90
59923;DHT22;45778;51.142;3.732;2022-08-19T10:20:12;22.30;99.90
59923;DHT22;45778;51.142;3.732;2022-08-19T10:22:38;22.40;99.90
59923;DHT22;45778;51.142;3.732;2022-08-19T10:25:05;22.70;99.90
59923;DHT22;45778;51.142;3.732;2022-08-19T10:27:30;23.00;99.90
59923;DHT22;45778;51.142;3.732;2022-08-19T10:29:56;23.40;99.90
59923;DHT22;45778;51.142;3.732;2022-08-19T10:32:22;24.10;99.90
59923;DHT22;45778;51.142;3.732;2022-08-19T10:34:48;24.60;99.90
59923;DHT22;45778;51.142;3.732;2022-08-19T10:37:16;25.10;99.90
59923;DHT22;45778;51.142;3.732;2022-08-19T10:39:45;25.30;99.90
59923;DHT22;45778;51.142;3.732;2022-08-19T10:42:13;25.40;99.90
59923;DHT22;45778;51.142;3.732;2022-08-19T10:44:39;25.50;99.90
59923;DHT22;45778;51.142;3.732;2022-08-19T10:47:05;25.10;99.90
59923;DHT22;45778;51.142;3.732;2022-08-19T10:49:31;24.80;99.90
59923;DHT22;45778;51.142;3.732;2022-08-19T10:51:57;24.80;99.90
59923;DHT22;45778;51.142;3.732;2022-08-19T10:54:42;24.50;99.90
59923;DHT22;45778;51.142;3.732;2022-08-19T10:57:30;24.00;99.90
59923;DHT22;45778;51.142;3.732;2022-08-19T10:59:56;23.90;99.90
59923;DHT22;45778;51.142;3.732;2022-08-19T11:02:22;24.00;99.90
59923;DHT22;45778;51.142;3.732;2022-08-19T11:04:48;23.90;99.90
59923;DHT22;45778;51.142;3.732;2022-08-19T11:07:15;23.60;99.90
59923;DHT22;45778;51.142;3.732;2022-08-19T11:09:42;23.30;99.90
59923;DHT22;45778;51.142;3.732;2022-08-19T11:12:09;23.50;99.90
59923;DHT22;45778;51.142;3.732;2022-08-19T11:14:36;23.40;99.90
59923;DHT22;45778;51.142;3.732;2022-08-19T11:17:03;23.30;99.90
59923;DHT22;45778;51.142;3.732;2022-08-19T11:19:29;23.30;99.90
59923;DHT22;45778;51.142;3.732;2022-08-19T11:21:55;23.40;99.90
59923;DHT22;45778;51.142;3.732;2022-08-19T11:24:23;23.70;99.90
59923;DHT22;45778;51.142;3.732;2022-08-19T11:26:51;24.20;99.90
59923;DHT22;45778;51.142;3.732;2022-08-19T11:29:20;24.50;99.90
59923;DHT22;45778;51.142;3.732;2022-08-19T11:31:48;24.20;99.90
59923;DHT22;45778;51.142;3.732;2022-08-19T11:34:21;24.20;99.90
59923;DHT22;45778;51.142;3.732;2022-08-19T11:36:47;24.30;99.90
59923;DHT22;45778;51.142;3.732;2022-08-19T11:39:15;24.20;99.90
59923;DHT22;45778;51.142;3.732;2022-08-19T11:41:41;24.00;99.90
59923;DHT22;45778;51.142;3.732;2022-08-19T11:44:07;23.80;99.90
59923;DHT22;45778;51.142;3.732;2022-08-19T11:46:34;24.00;99.90
59923;DHT22;45778;51.142;3.732;2022-08-19T11:49:00;24.00;99.90
59923;DHT22;45778;51.142;3.732;2022-08-19T11:51:28;24.00;99.90
59923;DHT22;45778;51.142;3.732;2022-08-19T11:53:55;24.10;99.90
59923;DHT22;45778;51.142;3.732;2022-08-19T11:56:22;24.00;99.90
59923;DHT22;45778;51.142;3.732;2022-08-19T11:58:49;24.00;99.90
59923;DHT22;45778;51.142;3.732;2022-08-19T12:01:17;24.10;99.90
59923;DHT22;45778;51.142;3.732;2022-08-19T12:03:45;24.40;99.90
59923;DHT22;45778;51.142;3.732;2022-08-19T12:06:14;24.90;99.90
59923;DHT22;45778;51.142;3.732;2022-08-19T12:08:41;25.10;99.90
59923;DHT22;45778;51.142;3.732;2022-08-19T12:11:07;25.50;99.90
59923;DHT22;45778;51.142;3.732;2022-08-19T12:13:34;25.80;99.90
59923;DHT22;45778;51.142;3.732;2022-08-19T12:16:01;26.00;99.90
59923;DHT22;45778;51.142;3.732;2022-08-19T12:18:32;25.70;99.90
59923;DHT22;45778;51.142;3.732;2022-08-19T12:20:57;25.80;99.90
59923;DHT22;45778;51.142;3.732;2022-08-19T12:23:25;26.10;99.90
59923;DHT22;45778;51.142;3.732;2022-08-19T12:25:51;25.70;99.90
59923;DHT22;45778;51.142;3.732;2022-08-19T12:28:19;25.90;99.90
59923;DHT22;45778;51.142;3.732;2022-08-19T12:30:46;25.90;99.90
59923;DHT22;45778;51.142;3.732;2022-08-19T12:33:12;27.10;99.90
59923;DHT22;45778;51.142;3.732;2022-08-19T12:35:43;28.40;99.80
59923;DHT22;45778;51.142;3.732;2022-08-19T12:38:10;29.50;98.10
59923;DHT22;45778;51.142;3.732;2022-08-19T12:40:36;29.30;96.90
59923;DHT22;45778;51.142;3.732;2022-08-19T12:43:02;28.00;99.00
59923;DHT22;45778;51.142;3.732;2022-08-19T12:45:27;27.40;99.30
59923;DHT22;45778;51.142;3.732;2022-08-19T12:47:53;27.30;99.80
59923;DHT22;45778;51.142;3.732;2022-08-19T12:50:19;28.00;98.70
59923;DHT22;45778;51.142;3.732;2022-08-19T12:52:47;28.50;98.20
59923;DHT22;45778;51.142;3.732;2022-08-19T12:55:13;28.40;98.10
59923;DHT22;45778;51.142;3.732;2022-08-19T12:57:39;27.60;98.00
59923;DHT22;45778;51.142;3.732;2022-08-19T13:00:12;27.00;99.30
59923;DHT22;45778;51.142;3.732;2022-08-19T13:02:41;25.90;99.90
59923;DHT22;45778;51.142;3.732;2022-08-19T13:05:09;25.30;99.90
59923;DHT22;45778;51.142;3.732;2022-08-19T13:07:38;25.00;99.90
59923;DHT22;45778;51.142;3.732;2022-08-19T13:10:08;24.50;99.90
59923;DHT22;45778;51.142;3.732;2022-08-19T13:12:34;24.20;99.90
59923;DHT22;45778;51.142;3.732;2022-08-19T13:15:00;23.90;99.90
59923;DHT22;45778;51.142;3.732;2022-08-19T13:17:26;23.60;99.90
59923;DHT22;45778;51.142;3.732;2022-08-19T13:19:52;22.60;99.90
59923;DHT22;45778;51.142;3.732;2022-08-19T13:22:18;21.70;99.90
59923;DHT22;45778;51.142;3.732;2022-08-19T13:24:43;21.10;99.90
59923;DHT22;45778;51.142;3.732;2022-08-19T13:27:09;20.80;99.90
59923;DHT22;45778;51.142;3.732;2022-08-19T13:29:35;20.50;99.90
59923;DHT22;45778;51.142;3.732;2022-08-19T13:32:19;20.30;99.90
59923;DHT22;45778;51.142;3.732;2022-08-19T13:35:04;20.30;99.90
59923;DHT22;45778;51.142;3.732;2022-08-19T13:37:30;20.30;99.90
59923;DHT22;45778;51.142;3.732;2022-08-19T13:40:13;20.60;99.90
59923;DHT22;45778;51.142;3.732;2022-08-19T13:42:45;21.00;99.90
59923;DHT22;45778;51.142;3.732;2022-08-19T13:45:14;21.40;99.90
59923;DHT22;45778;51.142;3.732;2022-08-19T13:47:40;21.70;99.90
59923;DHT22;45778;51.142;3.732;2022-08-19T13:50:11;22.10;99.90
59923;DHT22;45778;51.142;3.732;2022-08-19T13:52:38;22.30;99.90
59923;DHT22;45778;51.142;3.732;2022-08-19T13:55:04;22.40;99.90
59923;DHT22;45778;51.142;3.732;2022-08-19T13:57:30;22.80;99.90
59923;DHT22;45778;51.142;3.732;2022-08-19T13:59:57;23.00;99.90
59923;DHT22;45778;51.142;3.732;2022-08-19T14:02:24;23.10;99.90
59923;DHT22;45778;51.142;3.732;2022-08-19T14:04:50;23.40;99.90
59923;DHT22;45778;51.142;3.732;2022-08-19T14:07:15;23.20;99.90
59923;DHT22;45778;51.142;3.732;2022-08-19T14:09:41;23.70;99.90
59923;DHT22;45778;51.142;3.732;2022-08-19T14:12:07;24.40;99.90
59923;DHT22;45778;51.142;3.732;2022-08-19T14:14:37;24.80;99.90
59923;DHT22;45778;51.142;3.732;2022-08-19T14:17:06;25.60;99.90
59923;DHT22;45778;51.142;3.732;2022-08-19T14:19:32;26.70;99.90
59923;DHT22;45778;51.142;3.732;2022-08-19T14:21:58;27.20;99.90
59923;DHT22;45778;51.142;3.732;2022-08-19T14:24:24;27.40;99.90
59923;DHT22;45778;51.142;3.732;2022-08-19T14:26:50;27.20;99.90
59923;DHT22;45778;51.142;3.732;2022-08-19T14:29:15;26.30;99.90
59923;DHT22;45778;51.142;3.732;2022-08-19T14:31:41;25.70;99.90
59923;DHT22;45778;51.142;3.732;2022-08-19T14:34:09;25.60;99.90
59923;DHT22;45778;51.142;3.732;2022-08-19T14:36:36;25.70;99.90
59923;DHT22;45778;51.142;3.732;2022-08-19T14:39:03;26.30;99.90
59923;DHT22;45778;51.142;3.732;2022-08-19T14:41:29;28.10;99.90
59923;DHT22;45778;51.142;3.732;2022-08-19T14:43:56;29.60;99.90
59923;DHT22;45778;51.142;3.732;2022-08-19T14:46:24;29.80;99.90
59923;DHT22;45778;51.142;3.732;2022-08-19T14:48:50;30.70;98.20
59923;DHT22;45778;51.142;3.732;2022-08-19T14:51:17;29.80;97.90
59923;DHT22;45778;51.142;3.732;2022-08-19T14:53:43;29.50;98.40
59923;DHT22;45778;51.142;3.732;2022-08-19T14:56:12;30.60;98.30
59923;DHT22;45778;51.142;3.732;2022-08-19T14:58:41;31.90;96.60
59923;DHT22;45778;51.142;3.732;2022-08-19T15:01:08;30.60;96.50
59923;DHT22;45778;51.142;3.732;2022-08-19T15:03:34;28.70;97.90
59923;DHT22;45778;51.142;3.732;2022-08-19T15:06:01;27.60;99.90
59923;DHT22;45778;51.142;3.732;2022-08-19T15:08:29;27.80;99.90
59923;DHT22;45778;51.142;3.732;2022-08-19T15:10:55;29.70;99.60
59923;DHT22;45778;51.142;3.732;2022-08-19T15:13:21;31.30;95.90
59923;DHT22;45778;51.142;3.732;2022-08-19T15:15:48;31.90;94.00
59923;DHT22;45778;51.142;3.732;2022-08-19T15:18:14;33.10;91.70
59923;DHT22;45778;51.142;3.732;2022-08-19T15:20:39;32.20;91.70
59923;DHT22;45778;51.142;3.732;2022-08-19T15:23:06;31.80;92.20
59923;DHT22;45778;51.142;3.732;2022-08-19T15:25:32;31.20;93.10
59923;DHT22;45778;51.142;3.732;2022-08-19T15:27:58;30.70;93.10
59923;DHT22;45778;51.142;3.732;2022-08-19T15:30:27;30.10;93.70
59923;DHT22;45778;51.142;3.732;2022-08-19T15:32:54;29.60;95.50
59923;DHT22;45778;51.142;3.732;2022-08-19T15:35:21;29.10;96.20
59923;DHT22;45778;51.142;3.732;2022-08-19T15:37:51;29.10;96.00
59923;DHT22;45778;51.142;3.732;2022-08-19T15:40:19;29.20;96.10
59923;DHT22;45778;51.142;3.732;2022-08-19T15:42:45;30.20;94.70
59923;DHT22;45778;51.142;3.732;2022-08-19T15:45:13;31.20;93.40
59923;DHT22;45778;51.142;3.732;2022-08-19T15:47:39;31.40;92.40